createdAt,value
2017-01-21T00:01:02.963Z,0
2017-01-21T00:01:48.060Z,0
2017-01-21T00:02:48.079Z,0
2017-01-21T00:03:48.096Z,0
2017-01-21T00:04:48.116Z,0
2017-01-21T00:06:03.044Z,0
2017-01-21T00:06:48.144Z,0
2017-01-21T00:08:03.090Z,0
2017-01-21T00:08:48.177Z,0
2017-01-21T00:10:03.111Z,0
2017-01-21T00:10:48.211Z,0
2017-01-21T00:11:48.225Z,0
2017-01-21T00:12:48.247Z,0
2017-01-21T00:13:48.257Z,0
2017-01-21T00:14:48.275Z,0
2017-01-21T00:15:48.293Z,0
2017-01-21T00:16:48.314Z,0
2017-01-21T00:18:03.239Z,0
2017-01-21T00:18:48.346Z,0
2017-01-21T00:19:48.364Z,0
2017-01-21T00:21:03.290Z,0
2017-01-21T00:21:48.390Z,0
2017-01-21T00:22:48.405Z,0
2017-01-21T00:23:48.422Z,0
2017-01-21T00:24:48.441Z,0
2017-01-21T00:26:03.370Z,0
2017-01-21T00:26:48.468Z,0
2017-01-21T00:27:48.487Z,0
2017-01-21T00:28:48.500Z,0
2017-01-21T00:30:03.438Z,0
2017-01-21T00:30:48.565Z,0
2017-01-21T00:31:48.552Z,0
2017-01-21T00:33:03.485Z,0
2017-01-21T00:34:48.619Z,0
2017-01-21T00:35:48.622Z,0
2017-01-21T00:37:03.551Z,0
2017-01-21T00:37:48.651Z,0
2017-01-21T00:38:48.661Z,0
2017-01-21T00:39:48.682Z,0
2017-01-21T00:40:48.694Z,0
2017-01-21T00:42:03.630Z,0
2017-01-21T00:42:48.761Z,0
2017-01-21T00:43:48.743Z,0
2017-01-21T00:44:48.760Z,0
2017-01-21T00:45:48.804Z,0
2017-01-21T00:46:48.821Z,0
2017-01-21T00:48:03.727Z,0
2017-01-21T00:48:48.825Z,0
2017-01-21T00:49:48.843Z,0
2017-01-21T00:50:48.859Z,0
2017-01-21T00:51:48.874Z,0
2017-01-21T00:52:48.888Z,0
2017-01-21T00:54:03.825Z,0
2017-01-21T00:55:48.945Z,0
2017-01-21T00:56:48.954Z,0
2017-01-21T00:58:03.891Z,0
2017-01-21T00:58:48.987Z,0
2017-01-21T00:59:49.004Z,0
2017-01-21T01:00:49.019Z,0
2017-01-21T01:01:49.037Z,0
2017-01-21T01:03:03.971Z,0
2017-01-21T01:04:03.986Z,0
2017-01-21T01:04:49.086Z,0
2017-01-21T01:05:49.099Z,0
2017-01-21T01:06:49.115Z,0
2017-01-21T01:07:49.134Z,0
2017-01-21T01:08:49.187Z,0
2017-01-21T01:09:49.171Z,0
2017-01-21T01:10:49.185Z,0
2017-01-21T01:11:49.204Z,0
2017-01-21T01:13:04.134Z,0
2017-01-21T01:13:49.235Z,0
2017-01-21T01:14:49.249Z,0
2017-01-21T01:15:49.265Z,0
2017-01-21T01:17:04.199Z,0
2017-01-21T01:17:49.303Z,0
2017-01-21T01:18:49.312Z,0
2017-01-21T01:19:49.339Z,0
2017-01-21T01:20:49.345Z,0
2017-01-21T01:21:49.374Z,0
2017-01-21T01:23:04.296Z,0
2017-01-21T01:23:49.791Z,0
2017-01-21T01:24:49.411Z,0
2017-01-21T01:25:49.431Z,0
2017-01-21T01:26:49.445Z,0
2017-01-21T01:27:49.473Z,0
2017-01-21T01:28:49.475Z,0
2017-01-21T01:29:49.495Z,0
2017-01-21T01:31:04.431Z,0
2017-01-21T01:31:49.527Z,0
2017-01-21T01:33:49.573Z,0
2017-01-21T01:34:49.574Z,0
2017-01-21T01:35:49.591Z,0
2017-01-21T01:36:49.603Z,0
2017-01-21T01:37:49.623Z,0
2017-01-21T01:39:04.558Z,0
2017-01-21T01:39:49.659Z,0
2017-01-21T01:40:49.697Z,0
2017-01-21T01:41:49.688Z,0
2017-01-21T01:42:49.734Z,0
2017-01-21T01:43:49.723Z,0
2017-01-21T01:45:04.656Z,0
2017-01-21T01:46:49.767Z,0
2017-01-21T01:47:50.185Z,0
2017-01-21T01:49:04.721Z,0
2017-01-21T01:49:49.864Z,0
2017-01-21T01:51:04.751Z,0
2017-01-21T01:51:49.847Z,0
2017-01-21T01:52:49.865Z,0
2017-01-21T01:53:49.883Z,0
2017-01-21T01:54:49.926Z,0
2017-01-21T01:55:49.923Z,0
2017-01-21T01:56:49.929Z,0
2017-01-21T01:57:49.959Z,0
2017-01-21T01:58:49.998Z,0
2017-01-21T01:59:49.983Z,0
2017-01-21T02:01:04.917Z,0
2017-01-21T02:01:50.015Z,0
2017-01-21T02:02:50.027Z,0
2017-01-21T02:03:50.047Z,0
2017-01-21T02:04:50.083Z,0
2017-01-21T02:05:50.080Z,0
2017-01-21T02:06:50.094Z,0
2017-01-21T02:07:50.115Z,0
2017-01-21T02:08:50.128Z,0
2017-01-21T02:09:50.141Z,0
2017-01-21T02:10:50.166Z,0
2017-01-21T02:11:50.572Z,0
2017-01-21T02:12:50.190Z,0
2017-01-21T02:13:50.210Z,0
2017-01-21T02:14:50.224Z,0
2017-01-21T02:15:50.243Z,0
2017-01-21T02:17:05.174Z,0
2017-01-21T02:17:50.279Z,0
2017-01-21T02:18:50.291Z,0
2017-01-21T02:19:50.307Z,0
2017-01-21T02:20:50.369Z,0
2017-01-21T02:21:50.343Z,0
2017-01-21T02:22:50.355Z,0
2017-01-21T02:24:05.288Z,0
2017-01-21T02:24:50.389Z,0
2017-01-21T02:25:50.406Z,0
2017-01-21T02:27:05.338Z,0
2017-01-21T02:28:50.451Z,0
2017-01-21T02:29:50.469Z,0
2017-01-21T02:30:50.490Z,0
2017-01-21T02:31:50.500Z,0
2017-01-21T02:33:05.437Z,0
2017-01-21T02:33:50.540Z,0
2017-01-21T02:34:50.555Z,0
2017-01-21T02:35:50.567Z,0
2017-01-21T02:36:50.582Z,0
2017-01-21T02:38:05.519Z,0
2017-01-21T02:39:05.535Z,0
2017-01-21T02:40:05.551Z,0
2017-01-21T02:40:50.651Z,0
2017-01-21T02:41:50.670Z,0
2017-01-21T02:42:50.682Z,0
2017-01-21T02:44:05.616Z,0
2017-01-21T02:44:50.744Z,0
2017-01-21T02:45:50.733Z,0
2017-01-21T02:46:50.746Z,0
2017-01-21T02:48:05.686Z,0
2017-01-21T02:48:50.779Z,0
2017-01-21T02:49:50.798Z,0
2017-01-21T02:50:51.203Z,0
2017-01-21T02:51:50.830Z,0
2017-01-21T02:52:50.848Z,0
2017-01-21T02:53:50.863Z,0
2017-01-21T02:54:50.881Z,0
2017-01-21T02:55:50.896Z,0
2017-01-21T02:56:50.910Z,0
2017-01-21T02:58:05.847Z,0
2017-01-21T02:58:50.942Z,0
2017-01-21T02:59:50.959Z,0
2017-01-21T03:00:50.980Z,0
2017-01-21T03:01:50.993Z,0
2017-01-21T03:02:51.011Z,0
2017-01-21T03:03:51.029Z,0
2017-01-21T03:04:51.043Z,0
2017-01-21T03:05:51.071Z,0
2017-01-21T03:06:51.077Z,0
2017-01-21T03:07:51.106Z,0
2017-01-21T03:08:51.107Z,0
2017-01-21T03:10:06.044Z,0
2017-01-21T03:11:51.156Z,0
2017-01-21T03:12:51.174Z,0
2017-01-21T03:13:51.190Z,0
2017-01-21T03:14:51.205Z,0
2017-01-21T03:16:06.139Z,0
2017-01-21T03:16:51.247Z,0
2017-01-21T03:17:51.256Z,0
2017-01-21T03:18:51.272Z,0
2017-01-21T03:20:21.128Z,0
2017-01-21T03:20:51.307Z,0
2017-01-21T03:21:51.323Z,0
2017-01-21T03:22:51.334Z,0
2017-01-21T03:23:51.355Z,0
2017-01-21T03:25:06.288Z,0
2017-01-21T03:26:06.305Z,0
2017-01-21T03:26:51.404Z,0
2017-01-21T03:27:51.417Z,0
2017-01-21T03:29:06.356Z,0
2017-01-21T03:29:51.450Z,0
2017-01-21T03:31:06.386Z,0
2017-01-21T03:31:51.492Z,0
2017-01-21T03:32:51.503Z,0
2017-01-21T03:33:51.517Z,0
2017-01-21T03:34:51.533Z,0
2017-01-21T03:36:06.468Z,0
2017-01-21T03:36:51.565Z,0
2017-01-21T03:37:51.608Z,0
2017-01-21T03:38:51.598Z,0
2017-01-21T03:39:51.617Z,0
2017-01-21T03:40:51.632Z,0
2017-01-21T03:42:06.568Z,0
2017-01-21T03:44:06.596Z,0
2017-01-21T03:45:06.612Z,0
2017-01-21T03:45:51.718Z,0
2017-01-21T03:47:06.647Z,0
2017-01-21T03:47:51.746Z,0
2017-01-21T03:49:06.679Z,0
2017-01-21T03:49:51.778Z,0
2017-01-21T03:50:51.793Z,0
2017-01-21T03:52:06.727Z,0
2017-01-21T03:52:51.828Z,0
2017-01-21T03:53:51.850Z,0
2017-01-21T03:54:51.872Z,0
2017-01-21T03:55:51.875Z,0
2017-01-21T03:56:51.898Z,0
2017-01-21T03:57:51.910Z,0
2017-01-21T03:58:51.928Z,0
2017-01-21T03:59:51.941Z,0
2017-01-21T04:00:51.957Z,0
2017-01-21T04:01:51.973Z,0
2017-01-21T04:02:51.990Z,0
2017-01-21T04:03:52.011Z,0
2017-01-21T04:04:52.022Z,0
2017-01-21T04:05:52.039Z,0
2017-01-21T04:06:52.057Z,0
2017-01-21T04:08:06.992Z,0
2017-01-21T04:08:52.087Z,0
2017-01-21T04:09:52.106Z,0
2017-01-21T04:10:52.121Z,0
2017-01-21T04:11:52.142Z,0
2017-01-21T04:13:07.072Z,0
2017-01-21T04:13:52.168Z,0
2017-01-21T04:14:52.185Z,0
2017-01-21T04:16:07.118Z,0
2017-01-21T04:16:52.519Z,0
2017-01-21T04:17:52.233Z,0
2017-01-21T04:19:07.169Z,0
2017-01-21T04:19:52.269Z,0
2017-01-21T04:21:52.300Z,0
2017-01-21T04:23:07.236Z,0
2017-01-21T04:24:52.349Z,0
2017-01-21T04:25:52.363Z,0
2017-01-21T04:26:52.389Z,0
2017-01-21T04:28:07.318Z,0
2017-01-21T04:28:52.417Z,0
2017-01-21T04:30:07.349Z,0
2017-01-21T04:30:52.449Z,0
2017-01-21T04:31:52.462Z,0
2017-01-21T04:32:52.483Z,0
2017-01-21T04:34:07.425Z,0
2017-01-21T04:34:52.514Z,0
2017-01-21T04:35:52.530Z,0
2017-01-21T04:36:52.847Z,0
2017-01-21T04:37:52.562Z,0
2017-01-21T04:38:52.578Z,0
2017-01-21T04:39:52.597Z,0
2017-01-21T04:40:52.613Z,0
2017-01-21T04:41:52.628Z,0
2017-01-21T04:42:52.643Z,0
2017-01-21T04:43:52.659Z,0
2017-01-21T04:44:52.674Z,0
2017-01-21T04:45:52.694Z,0
2017-01-21T04:47:07.625Z,0
2017-01-21T04:47:52.723Z,0
2017-01-21T04:48:52.744Z,0
2017-01-21T04:49:52.762Z,0
2017-01-21T04:51:52.811Z,0
2017-01-21T04:52:52.808Z,0
2017-01-21T04:53:52.827Z,0
2017-01-21T04:55:07.761Z,0
2017-01-21T04:55:52.855Z,0
2017-01-21T04:56:52.874Z,0
2017-01-21T04:57:52.893Z,0
2017-01-21T04:58:52.904Z,0
2017-01-21T04:59:52.919Z,0
2017-01-21T05:01:07.855Z,0
2017-01-21T05:01:52.954Z,0
2017-01-21T05:03:52.985Z,0
2017-01-21T05:04:53.001Z,0
2017-01-21T05:05:53.029Z,0
2017-01-21T05:07:53.052Z,0
2017-01-21T05:09:53.083Z,0
2017-01-21T05:11:08.016Z,0
2017-01-21T05:11:53.118Z,0
2017-01-21T05:12:53.131Z,0
2017-01-21T05:13:53.151Z,0
2017-01-21T05:15:08.085Z,0
2017-01-21T05:15:53.181Z,0
2017-01-21T05:16:53.238Z,0
2017-01-21T05:17:53.213Z,0
2017-01-21T05:18:53.236Z,0
2017-01-21T05:20:08.163Z,0
2017-01-21T05:21:08.182Z,0
2017-01-21T05:22:08.224Z,0
2017-01-21T05:22:53.299Z,0
2017-01-21T05:23:53.314Z,0
2017-01-21T05:24:53.348Z,0
2017-01-21T05:25:53.347Z,0
2017-01-21T05:27:08.279Z,0
2017-01-21T05:27:53.380Z,0
2017-01-21T05:28:53.405Z,0
2017-01-21T05:29:53.440Z,0
2017-01-21T05:30:53.429Z,0
2017-01-21T05:31:53.438Z,0
2017-01-21T05:33:08.377Z,0
2017-01-21T05:33:53.477Z,0
2017-01-21T05:35:08.414Z,0
2017-01-21T05:35:53.509Z,0
2017-01-21T05:36:53.524Z,0
2017-01-21T05:37:53.538Z,0
2017-01-21T05:38:53.562Z,0
2017-01-21T05:40:53.591Z,0
2017-01-21T05:41:53.607Z,0
2017-01-21T05:43:08.540Z,0
2017-01-21T05:43:53.638Z,0
2017-01-21T05:44:53.656Z,0
2017-01-21T05:45:53.674Z,0
2017-01-21T05:46:53.692Z,0
2017-01-21T05:47:53.705Z,0
2017-01-21T05:48:53.724Z,0
2017-01-21T05:49:53.736Z,0
2017-01-21T05:51:08.671Z,0
2017-01-21T05:51:53.773Z,0
2017-01-21T05:52:53.784Z,0
2017-01-21T05:53:53.829Z,0
2017-01-21T05:55:53.846Z,0
2017-01-21T05:56:53.856Z,0
2017-01-21T05:58:08.790Z,0
2017-01-21T05:58:53.885Z,0
2017-01-21T05:59:53.902Z,0
2017-01-21T06:00:53.921Z,0
2017-01-21T06:01:53.938Z,0
2017-01-21T06:03:08.871Z,0
2017-01-21T06:03:53.968Z,0
2017-01-21T06:04:53.987Z,0
2017-01-21T06:05:54.003Z,0
2017-01-21T06:06:54.014Z,0
2017-01-21T06:08:08.952Z,0
2017-01-21T06:09:54.078Z,0
2017-01-21T06:11:09.000Z,0
2017-01-21T06:11:54.107Z,0
2017-01-21T06:12:54.117Z,0
2017-01-21T06:13:54.136Z,0
2017-01-21T06:14:54.148Z,0
2017-01-21T06:15:54.168Z,0
2017-01-21T06:16:54.181Z,0
2017-01-21T06:17:54.198Z,0
2017-01-21T06:18:54.214Z,0
2017-01-21T06:20:09.149Z,0
2017-01-21T06:21:09.163Z,0
2017-01-21T06:21:54.265Z,0
2017-01-21T06:22:54.279Z,0
2017-01-21T06:24:54.314Z,0
2017-01-21T06:25:54.328Z,0
2017-01-21T06:26:54.350Z,0
2017-01-21T06:27:54.360Z,0
2017-01-21T06:28:54.378Z,0
2017-01-21T06:30:09.317Z,0
2017-01-21T06:30:54.411Z,0
2017-01-21T06:31:54.426Z,0
2017-01-21T06:32:54.442Z,0
2017-01-21T06:33:54.485Z,0
2017-01-21T06:34:54.475Z,4
2017-01-21T06:35:54.494Z,4
2017-01-21T06:36:54.509Z,0
2017-01-21T06:37:54.529Z,0
2017-01-21T06:38:54.541Z,4
2017-01-21T06:41:54.597Z,4
2017-01-21T06:42:54.607Z,4
2017-01-21T06:43:54.623Z,4
2017-01-21T06:44:54.638Z,8
2017-01-21T06:46:09.572Z,8
2017-01-21T06:46:54.673Z,8
2017-01-21T06:47:54.721Z,8
2017-01-21T06:48:54.706Z,12
2017-01-21T06:49:54.721Z,12
2017-01-21T06:50:54.733Z,12
2017-01-21T06:52:09.672Z,16
2017-01-21T06:52:54.766Z,12
2017-01-21T06:53:54.786Z,16
2017-01-21T06:54:54.804Z,20
2017-01-21T06:55:54.835Z,24
2017-01-21T06:56:54.837Z,24
2017-01-21T06:57:54.850Z,28
2017-01-21T06:58:54.869Z,32
2017-01-21T06:59:54.883Z,32
2017-01-21T07:00:54.905Z,36
2017-01-21T07:02:09.837Z,40
2017-01-21T07:02:54.934Z,40
2017-01-21T07:03:54.946Z,44
2017-01-21T07:05:09.887Z,48
2017-01-21T07:05:54.979Z,48
2017-01-21T07:06:54.999Z,52
2017-01-21T07:08:09.933Z,52
2017-01-21T07:08:55.055Z,52
2017-01-21T07:09:55.048Z,56
2017-01-21T07:11:55.081Z,68
2017-01-21T07:12:55.099Z,68
2017-01-21T07:13:55.114Z,76
2017-01-21T07:14:55.135Z,84
2017-01-21T07:15:55.146Z,92
2017-01-21T07:16:55.162Z,96
2017-01-21T07:18:10.098Z,104
2017-01-21T07:18:55.193Z,108
2017-01-21T07:19:55.607Z,116
2017-01-21T07:20:55.228Z,124
2017-01-21T07:21:55.239Z,128
2017-01-21T07:22:55.264Z,132
2017-01-21T07:23:55.275Z,132
2017-01-21T07:24:55.296Z,136
2017-01-21T07:25:55.308Z,136
2017-01-21T07:26:55.326Z,144
2017-01-21T07:27:55.339Z,152
2017-01-21T07:29:10.276Z,152
2017-01-21T07:29:55.374Z,160
2017-01-21T07:30:55.394Z,164
2017-01-21T07:31:55.408Z,168
2017-01-21T07:33:10.344Z,180
2017-01-21T07:33:55.445Z,192
2017-01-21T07:34:55.458Z,200
2017-01-21T07:35:55.476Z,204
2017-01-21T07:36:55.490Z,208
2017-01-21T07:37:55.510Z,216
2017-01-21T07:38:55.522Z,232
2017-01-21T07:39:55.539Z,240
2017-01-21T07:40:55.558Z,248
2017-01-21T07:41:55.574Z,264
2017-01-21T07:42:55.591Z,276
2017-01-21T07:44:55.624Z,304
2017-01-21T07:45:55.641Z,316
2017-01-21T07:46:55.657Z,340
2017-01-21T07:47:55.673Z,348
2017-01-21T07:48:55.689Z,348
2017-01-21T07:49:55.706Z,352
2017-01-21T07:50:55.721Z,348
2017-01-21T07:51:55.735Z,336
2017-01-21T07:52:55.753Z,340
2017-01-21T07:53:55.771Z,340
2017-01-21T07:54:55.796Z,332
2017-01-21T07:55:55.808Z,344
2017-01-21T07:56:55.819Z,372
2017-01-21T07:57:55.835Z,380
2017-01-21T07:58:55.856Z,388
2017-01-21T08:00:10.786Z,388
2017-01-21T08:00:55.888Z,404
2017-01-21T08:02:55.918Z,436
2017-01-21T08:03:55.933Z,432
2017-01-21T08:05:10.867Z,440
2017-01-21T08:05:55.964Z,436
2017-01-21T08:06:55.982Z,432
2017-01-21T08:07:56.000Z,428
2017-01-21T08:08:56.015Z,444
2017-01-21T08:10:10.950Z,472
2017-01-21T08:10:56.046Z,480
2017-01-21T08:11:56.089Z,496
2017-01-21T08:13:10.997Z,512
2017-01-21T08:13:56.101Z,512
2017-01-21T08:14:56.113Z,516
2017-01-21T08:16:11.050Z,552
2017-01-21T08:16:56.146Z,568
2017-01-21T08:17:56.162Z,600
2017-01-21T08:18:56.177Z,644
2017-01-21T08:19:56.195Z,656
2017-01-21T08:21:11.129Z,680
2017-01-21T08:21:56.234Z,676
2017-01-21T08:22:56.245Z,668
2017-01-21T08:23:56.262Z,628
2017-01-21T08:24:56.277Z,596
2017-01-21T08:25:56.294Z,592
2017-01-21T08:26:56.321Z,600
2017-01-21T08:27:56.324Z,652
2017-01-21T08:28:56.342Z,724
2017-01-21T08:29:56.366Z,776
2017-01-21T08:30:56.376Z,812
2017-01-21T08:32:11.310Z,840
2017-01-21T08:32:56.417Z,840
2017-01-21T08:33:56.430Z,840
2017-01-21T08:34:56.445Z,844
2017-01-21T08:35:56.461Z,832
2017-01-21T08:37:11.393Z,800
2017-01-21T08:37:56.493Z,792
2017-01-21T08:38:56.509Z,796
2017-01-21T08:39:56.525Z,824
2017-01-21T08:40:56.541Z,824
2017-01-21T08:41:56.556Z,788
2017-01-21T08:42:56.577Z,772
2017-01-21T08:43:56.600Z,784
2017-01-21T08:44:56.611Z,840
2017-01-21T08:45:56.624Z,864
2017-01-21T08:46:56.643Z,868
2017-01-21T08:48:11.964Z,880
2017-01-21T08:49:11.594Z,896
2017-01-21T08:49:56.695Z,900
2017-01-21T08:50:56.707Z,908
2017-01-21T08:51:56.724Z,876
2017-01-21T08:53:11.663Z,860
2017-01-21T08:53:56.761Z,884
2017-01-21T08:54:56.776Z,920
2017-01-21T08:55:56.791Z,940
2017-01-21T08:56:56.829Z,956
2017-01-21T08:57:56.830Z,944
2017-01-21T08:58:56.845Z,944
2017-01-21T08:59:56.856Z,972
2017-01-21T09:00:56.872Z,992
2017-01-21T09:01:56.890Z,1004
2017-01-21T09:02:56.907Z,1012
2017-01-21T09:04:11.843Z,1040
2017-01-21T09:05:56.962Z,1084
2017-01-21T09:06:56.975Z,1104
2017-01-21T09:08:11.909Z,1104
2017-01-21T09:08:57.010Z,1076
2017-01-21T09:09:57.027Z,1016
2017-01-21T09:11:11.986Z,1000
2017-01-21T09:11:57.064Z,1016
2017-01-21T09:12:57.077Z,1064
2017-01-21T09:14:12.012Z,1120
2017-01-21T09:14:57.110Z,1168
2017-01-21T09:15:57.128Z,1208
2017-01-21T09:16:57.146Z,1192
2017-01-21T09:17:57.158Z,1140
2017-01-21T09:18:57.213Z,1112
2017-01-21T09:19:57.195Z,1088
2017-01-21T09:20:57.212Z,1104
2017-01-21T09:21:57.228Z,1120
2017-01-21T09:22:57.251Z,1104
2017-01-21T09:23:57.264Z,1124
2017-01-21T09:24:57.283Z,1156
2017-01-21T09:25:57.293Z,1200
2017-01-21T09:26:57.312Z,1280
2017-01-21T09:27:57.331Z,1312
2017-01-21T09:28:57.352Z,1276
2017-01-21T09:30:12.281Z,1176
2017-01-21T09:31:12.296Z,1128
2017-01-21T09:31:57.397Z,1096
2017-01-21T09:32:57.418Z,1100
2017-01-21T09:33:57.428Z,1108
2017-01-21T09:34:57.449Z,1108
2017-01-21T09:36:12.381Z,1084
2017-01-21T09:36:57.866Z,1060
2017-01-21T09:37:57.498Z,1064
2017-01-21T09:40:12.451Z,1176
2017-01-21T09:40:57.545Z,1240
2017-01-21T09:41:57.580Z,1232
2017-01-21T09:42:57.581Z,1244
2017-01-21T09:43:57.596Z,1232
2017-01-21T09:44:57.614Z,1236
2017-01-21T09:45:57.639Z,1272
2017-01-21T09:46:57.648Z,1312
2017-01-21T09:48:12.586Z,1308
2017-01-21T09:51:12.640Z,1412
2017-01-21T09:51:57.788Z,1408
2017-01-21T09:52:57.753Z,1432
2017-01-21T09:53:57.766Z,1444
2017-01-21T09:54:57.782Z,1440
2017-01-21T09:56:12.718Z,1440
2017-01-21T09:56:57.817Z,1448
2017-01-21T09:57:57.830Z,1424
2017-01-21T09:58:57.854Z,1448
2017-01-21T09:59:57.872Z,1484
2017-01-21T10:00:57.887Z,1520
2017-01-21T10:01:57.902Z,1500
2017-01-21T10:02:57.920Z,1460
2017-01-21T10:03:57.937Z,1440
2017-01-21T10:05:12.875Z,1420
2017-01-21T10:06:12.889Z,1440
2017-01-21T10:06:58.374Z,1484
2017-01-21T10:08:58.020Z,1552
2017-01-21T10:09:58.040Z,1576
2017-01-21T10:10:58.060Z,1592
2017-01-21T10:12:12.991Z,1588
2017-01-21T10:12:58.087Z,1588
2017-01-21T10:13:58.107Z,1632
2017-01-21T10:14:58.122Z,1624
2017-01-21T10:16:13.061Z,1596
2017-01-21T10:16:58.157Z,1568
2017-01-21T10:18:13.092Z,1520
2017-01-21T10:18:58.198Z,1528
2017-01-21T10:19:58.206Z,1548
2017-01-21T10:20:58.223Z,1608
2017-01-21T10:21:58.243Z,1648
2017-01-21T10:22:58.259Z,1636
2017-01-21T10:23:58.280Z,1572
2017-01-21T10:25:58.316Z,1568
2017-01-21T10:26:58.338Z,1612
2017-01-21T10:28:13.267Z,1680
2017-01-21T10:28:58.362Z,1668
2017-01-21T10:29:58.384Z,1636
2017-01-21T10:30:58.402Z,1576
2017-01-21T10:31:58.413Z,1568
2017-01-21T10:32:58.435Z,1612
2017-01-21T10:33:58.449Z,1668
2017-01-21T10:34:58.468Z,1732
2017-01-21T10:35:58.491Z,1768
2017-01-21T10:36:58.527Z,1760
2017-01-21T10:37:58.518Z,1752
2017-01-21T10:38:58.543Z,1732
2017-01-21T10:40:13.472Z,1704
2017-01-21T10:40:58.572Z,1680
2017-01-21T10:41:58.590Z,1676
2017-01-21T10:43:13.527Z,1648
2017-01-21T10:43:58.625Z,1624
2017-01-21T10:44:58.642Z,1580
2017-01-21T10:45:58.663Z,1564
2017-01-21T10:46:58.676Z,1564
2017-01-21T10:47:58.696Z,1640
2017-01-21T10:48:58.716Z,1648
2017-01-21T10:49:58.733Z,1640
2017-01-21T10:50:58.749Z,1644
2017-01-21T10:51:58.766Z,1664
2017-01-21T10:52:58.779Z,1676
2017-01-21T10:54:13.718Z,1692
2017-01-21T10:54:58.822Z,1696
2017-01-21T10:56:13.751Z,1732
2017-01-21T10:56:58.850Z,1756
2017-01-21T10:57:58.869Z,1776
2017-01-21T10:58:58.935Z,1772
2017-01-21T10:59:58.908Z,1792
2017-01-21T11:00:58.920Z,1804
2017-01-21T11:01:58.939Z,1804
2017-01-21T11:02:58.954Z,1756
2017-01-21T11:03:58.971Z,1724
2017-01-21T11:05:13.910Z,1708
2017-01-21T11:06:13.926Z,1724
2017-01-21T11:06:59.028Z,1736
2017-01-21T11:07:59.045Z,1736
2017-01-21T11:09:13.982Z,1744
2017-01-21T11:09:59.083Z,1740
2017-01-21T11:11:14.014Z,1748
2017-01-21T11:12:59.135Z,1748
2017-01-21T11:14:14.464Z,1756
2017-01-21T11:15:14.086Z,1764
2017-01-21T11:16:59.208Z,1820
2017-01-21T11:17:59.223Z,1884
2017-01-21T11:18:59.239Z,1944
2017-01-21T11:19:59.309Z,2036
2017-01-21T11:20:59.279Z,2100
2017-01-21T11:23:59.336Z,2024
2017-01-21T11:24:59.359Z,2012
2017-01-21T11:25:59.365Z,2008
2017-01-21T11:26:59.386Z,2048
2017-01-21T11:27:59.404Z,2108
2017-01-21T11:28:59.415Z,2160
2017-01-21T11:30:14.363Z,2196
2017-01-21T11:31:14.372Z,2180
2017-01-21T11:32:14.776Z,2184
2017-01-21T11:32:59.512Z,2164
2017-01-21T11:34:59.521Z,2072
2017-01-21T11:35:59.542Z,2080
2017-01-21T11:36:59.556Z,2072
2017-01-21T11:37:59.577Z,2052
2017-01-21T11:38:59.593Z,2028
2017-01-21T11:40:14.532Z,2024
2017-01-21T11:40:59.631Z,2020
2017-01-21T11:41:59.650Z,1992
2017-01-21T11:42:59.693Z,1948
2017-01-21T11:43:59.685Z,1972
2017-01-21T11:46:00.157Z,2040
2017-01-21T11:47:14.652Z,2008
2017-01-21T11:47:59.753Z,1992
2017-01-21T11:48:59.769Z,2028
2017-01-21T11:50:14.711Z,2028
2017-01-21T11:50:59.805Z,2008
2017-01-21T11:52:14.744Z,2004
2017-01-21T11:52:59.846Z,2004
2017-01-21T11:53:59.881Z,2020
2017-01-21T11:54:59.879Z,1988
2017-01-21T11:55:59.904Z,1940
2017-01-21T11:57:14.833Z,1900
2017-01-21T11:57:59.934Z,1896
2017-01-21T12:00:00.377Z,1840
2017-01-21T12:00:59.983Z,1840
2017-01-21T12:02:00.002Z,1852
2017-01-21T12:03:14.944Z,1820
2017-01-21T12:05:00.054Z,1760
2017-01-21T12:06:00.084Z,1724
2017-01-21T12:07:15.012Z,1760
2017-01-21T12:08:15.028Z,1772
2017-01-21T12:09:00.125Z,1772
2017-01-21T12:10:00.150Z,1780
2017-01-21T12:11:00.164Z,1816
2017-01-21T12:12:00.177Z,1824
2017-01-21T12:13:00.197Z,1812
2017-01-21T12:14:00.215Z,1772
2017-01-21T12:16:00.276Z,1700
2017-01-21T12:17:00.271Z,1668
2017-01-21T12:18:15.208Z,1648
2017-01-21T12:19:00.307Z,1636
2017-01-21T12:20:00.324Z,1608
2017-01-21T12:21:00.347Z,1564
2017-01-21T12:22:00.364Z,1552
2017-01-21T12:23:00.379Z,1540
2017-01-21T12:24:00.396Z,1524
2017-01-21T12:25:00.715Z,1520
2017-01-21T12:27:00.471Z,1508
2017-01-21T12:28:15.384Z,1496
2017-01-21T12:29:00.483Z,1504
2017-01-21T12:30:15.420Z,1512
2017-01-21T12:31:15.436Z,1528
2017-01-21T12:32:00.541Z,1552
2017-01-21T12:33:00.559Z,1592
2017-01-21T12:34:00.576Z,1592
2017-01-21T12:35:00.590Z,1584
2017-01-21T12:36:00.612Z,1556
2017-01-21T12:37:00.628Z,1516
2017-01-21T12:38:00.673Z,1496
2017-01-21T12:39:00.664Z,1472
2017-01-21T12:40:00.682Z,1452
2017-01-21T12:41:00.698Z,1448
2017-01-21T12:42:00.716Z,1460
2017-01-21T12:43:00.736Z,1472
2017-01-21T12:44:00.756Z,1476
2017-01-21T12:45:00.776Z,1456
2017-01-21T12:46:15.705Z,1396
2017-01-21T12:47:01.196Z,1372
2017-01-21T12:48:00.826Z,1352
2017-01-21T12:49:00.844Z,1344
2017-01-21T12:50:15.778Z,1352
2017-01-21T12:51:00.875Z,1356
2017-01-21T12:52:00.897Z,1368
2017-01-21T12:53:00.911Z,1376
2017-01-21T12:54:00.929Z,1388
2017-01-21T12:55:00.950Z,1392
2017-01-21T12:56:00.970Z,1388
2017-01-21T12:57:00.987Z,1396
2017-01-21T12:58:15.921Z,1404
2017-01-21T12:59:01.020Z,1404
2017-01-21T13:00:01.044Z,1400
2017-01-21T13:01:01.053Z,1388
2017-01-21T13:02:01.076Z,1376
2017-01-21T13:03:01.393Z,1376
2017-01-21T13:05:01.132Z,1360
2017-01-21T13:06:16.065Z,1344
2017-01-21T13:07:01.164Z,1344
2017-01-21T13:08:01.182Z,1348
2017-01-21T13:09:01.200Z,1348
2017-01-21T13:10:01.219Z,1324
2017-01-21T13:11:01.236Z,1292
2017-01-21T13:12:01.252Z,1252
2017-01-21T13:14:01.290Z,1200
2017-01-21T13:16:01.323Z,1200
2017-01-21T13:18:01.748Z,1204
2017-01-21T13:19:01.379Z,1192
2017-01-21T13:20:01.397Z,1168
2017-01-21T13:21:01.413Z,1148
2017-01-21T13:22:16.348Z,1136
2017-01-21T13:23:01.452Z,1124
2017-01-21T13:24:01.469Z,1116
2017-01-21T13:25:01.482Z,1096
2017-01-21T13:26:01.511Z,1080
2017-01-21T13:27:01.519Z,1064
2017-01-21T13:28:01.547Z,1052
2017-01-21T13:29:01.555Z,1044
2017-01-21T13:30:01.570Z,1040
2017-01-21T13:31:16.511Z,1032
2017-01-21T13:32:01.612Z,1016
2017-01-21T13:33:01.625Z,1000
2017-01-21T13:34:02.041Z,984
2017-01-21T13:35:01.665Z,984
2017-01-21T13:36:01.684Z,988
2017-01-21T13:37:01.699Z,992
2017-01-21T13:38:16.632Z,984
2017-01-21T13:39:01.734Z,972
2017-01-21T13:40:01.752Z,948
2017-01-21T13:41:01.769Z,924
2017-01-21T13:42:01.790Z,912
2017-01-21T13:43:01.802Z,908
2017-01-21T13:44:01.823Z,912
2017-01-21T13:45:16.757Z,908
2017-01-21T13:46:16.774Z,884
2017-01-21T13:47:01.876Z,864
2017-01-21T13:48:01.890Z,840
2017-01-21T13:49:01.934Z,820
2017-01-21T13:50:01.929Z,808
2017-01-21T13:52:01.966Z,776
2017-01-21T13:53:16.902Z,752
2017-01-21T13:54:02.001Z,740
2017-01-21T13:55:02.019Z,732
2017-01-21T13:56:02.037Z,732
2017-01-21T13:57:16.973Z,732
2017-01-21T13:58:02.068Z,740
2017-01-21T13:59:17.007Z,744
2017-01-21T14:00:02.104Z,744
2017-01-21T14:02:02.147Z,728
2017-01-21T14:03:02.160Z,716
2017-01-21T14:04:02.216Z,708
2017-01-21T14:05:17.112Z,700
2017-01-21T14:06:17.127Z,692
2017-01-21T14:07:02.229Z,688
2017-01-21T14:08:02.246Z,684
2017-01-21T14:09:02.268Z,684
2017-01-21T14:10:02.281Z,680
2017-01-21T14:11:02.300Z,668
2017-01-21T14:12:02.349Z,660
2017-01-21T14:13:02.336Z,652
2017-01-21T14:14:02.351Z,652
2017-01-21T14:15:17.289Z,644
2017-01-21T14:16:02.395Z,644
2017-01-21T14:17:02.404Z,628
2017-01-21T14:18:02.422Z,616
2017-01-21T14:20:17.375Z,592
2017-01-21T14:21:02.867Z,588
2017-01-21T14:22:02.497Z,576
2017-01-21T14:23:02.511Z,576
2017-01-21T14:24:02.528Z,572
2017-01-21T14:25:17.462Z,568
2017-01-21T14:26:17.485Z,560
2017-01-21T14:27:02.578Z,548
2017-01-21T14:28:02.597Z,528
2017-01-21T14:29:02.637Z,512
2017-01-21T14:30:02.633Z,508
2017-01-21T14:31:02.650Z,504
2017-01-21T14:32:02.668Z,512
2017-01-21T14:34:02.702Z,532
2017-01-21T14:35:02.717Z,520
2017-01-21T14:36:03.133Z,508
2017-01-21T14:37:02.757Z,496
2017-01-21T14:38:02.778Z,480
2017-01-21T14:39:02.791Z,456
2017-01-21T14:40:02.807Z,440
2017-01-21T14:41:32.715Z,420
2017-01-21T14:42:02.843Z,416
2017-01-21T14:43:02.861Z,412
2017-01-21T14:44:02.878Z,408
2017-01-21T14:45:02.897Z,404
2017-01-21T14:46:02.916Z,396
2017-01-21T14:47:02.930Z,388
2017-01-21T14:48:02.950Z,376
2017-01-21T14:49:02.967Z,368
2017-01-21T14:52:03.023Z,332
2017-01-21T14:53:03.062Z,320
2017-01-21T14:54:03.052Z,312